sensor_id;sensor_type;location;lat;lon;timestamp;pressure;altitude;pressure_sealevel;temperature;humidity
36950;BME280;22861;55.824;37.660;2022-07-23T00:01:35;99907.91;;;20.08;59.56
36950;BME280;22861;55.824;37.660;2022-07-23T00:04:00;99906.09;;;20.09;59.81
36950;BME280;22861;55.824;37.660;2022-07-23T00:06:26;99904.00;;;20.01;59.73
36950;BME280;22861;55.824;37.660;2022-07-23T00:08:52;99903.16;;;20.01;60.22
36950;BME280;22861;55.824;37.660;2022-07-23T00:11:18;99909.06;;;19.91;60.49
36950;BME280;22861;55.824;37.660;2022-07-23T00:13:44;99915.78;;;19.84;60.31
36950;BME280;22861;55.824;37.660;2022-07-23T00:16:09;99916.81;;;19.82;60.68
36950;BME280;22861;55.824;37.660;2022-07-23T00:18:35;99919.69;;;19.79;60.95
36950;BME280;22861;55.824;37.660;2022-07-23T00:21:00;99916.38;;;19.75;61.01
36950;BME280;22861;55.824;37.660;2022-07-23T00:23:26;99914.16;;;19.69;61.16
36950;BME280;22861;55.824;37.660;2022-07-23T00:25:54;99915.22;;;19.66;61.42
36950;BME280;22861;55.824;37.660;2022-07-23T00:28:20;99911.19;;;19.61;61.56
36950;BME280;22861;55.824;37.660;2022-07-23T00:30:45;99914.16;;;19.56;61.49
36950;BME280;22861;55.824;37.660;2022-07-23T00:33:11;99920.25;;;19.56;61.39
36950;BME280;22861;55.824;37.660;2022-07-23T00:35:38;99917.97;;;19.65;61.51
36950;BME280;22861;55.824;37.660;2022-07-23T00:38:07;99923.13;;;19.66;61.63
36950;BME280;22861;55.824;37.660;2022-07-23T00:40:34;99921.34;;;19.54;61.73
36950;BME280;22861;55.824;37.660;2022-07-23T00:43:00;99919.44;;;19.56;61.32
36950;BME280;22861;55.824;37.660;2022-07-23T00:45:26;99917.75;;;19.68;61.31
36950;BME280;22861;55.824;37.660;2022-07-23T00:47:52;99921.34;;;19.54;61.51
36950;BME280;22861;55.824;37.660;2022-07-23T00:50:18;99921.34;;;19.54;61.32
36950;BME280;22861;55.824;37.660;2022-07-23T00:52:44;99918.38;;;19.59;61.27
36950;BME280;22861;55.824;37.660;2022-07-23T00:55:10;99919.63;;;19.53;61.47
36950;BME280;22861;55.824;37.660;2022-07-23T00:57:37;99921.22;;;19.43;61.47
36950;BME280;22861;55.824;37.660;2022-07-23T01:00:04;99915.19;;;19.53;61.67
36950;BME280;22861;55.824;37.660;2022-07-23T01:02:31;99926.06;;;19.36;61.73
36950;BME280;22861;55.824;37.660;2022-07-23T01:04:57;99917.41;;;19.34;62.04
36950;BME280;22861;55.824;37.660;2022-07-23T01:07:23;99916.69;;;19.45;62.02
36950;BME280;22861;55.824;37.660;2022-07-23T01:09:50;99924.41;;;19.48;62.07
36950;BME280;22861;55.824;37.660;2022-07-23T01:12:16;99925.03;;;19.38;61.70
36950;BME280;22861;55.824;37.660;2022-07-23T01:14:42;99927.16;;;19.46;61.98
36950;BME280;22861;55.824;37.660;2022-07-23T01:17:07;99924.94;;;19.53;61.46
36950;BME280;22861;55.824;37.660;2022-07-23T01:19:33;99920.09;;;19.60;61.12
36950;BME280;22861;55.824;37.660;2022-07-23T01:22:01;99924.63;;;19.83;61.23
36950;BME280;22861;55.824;37.660;2022-07-23T01:24:27;99921.88;;;19.72;60.96
36950;BME280;22861;55.824;37.660;2022-07-23T01:26:53;99923.03;;;19.81;60.71
36950;BME280;22861;55.824;37.660;2022-07-23T01:29:18;99923.03;;;19.81;60.48
36950;BME280;22861;55.824;37.660;2022-07-23T01:31:46;99927.78;;;19.88;60.51
36950;BME280;22861;55.824;37.660;2022-07-23T01:34:13;99932.25;;;19.88;60.52
36950;BME280;22861;55.824;37.660;2022-07-23T01:36:39;99931.50;;;19.86;60.41
36950;BME280;22861;55.824;37.660;2022-07-23T01:39:06;99930.22;;;19.91;60.55
36950;BME280;22861;55.824;37.660;2022-07-23T01:41:32;99921.38;;;19.80;60.46
36950;BME280;22861;55.824;37.660;2022-07-23T01:43:58;99917.88;;;19.79;60.82
36950;BME280;22861;55.824;37.660;2022-07-23T01:46:23;99919.78;;;19.77;60.84
36950;BME280;22861;55.824;37.660;2022-07-23T01:48:49;99914.56;;;19.76;60.75
36950;BME280;22861;55.824;37.660;2022-07-23T01:51:14;99905.53;;;19.80;60.62
36950;BME280;22861;55.824;37.660;2022-07-23T01:53:40;99908.28;;;19.78;60.34
36950;BME280;22861;55.824;37.660;2022-07-23T01:56:05;99914.38;;;19.79;60.64
36950;BME280;22861;55.824;37.660;2022-07-23T01:58:31;99912.69;;;19.78;60.84
36950;BME280;22861;55.824;37.660;2022-07-23T02:00:57;99915.34;;;19.78;60.75
36950;BME280;22861;55.824;37.660;2022-07-23T02:03:23;99918.72;;;19.80;60.82
36950;BME280;22861;55.824;37.660;2022-07-23T02:05:49;99916.16;;;19.91;60.88
36950;BME280;22861;55.824;37.660;2022-07-23T02:08:14;99913.53;;;19.91;60.74
36950;BME280;22861;55.824;37.660;2022-07-23T02:10:40;99903.78;;;20.04;60.43
36950;BME280;22861;55.824;37.660;2022-07-23T02:13:06;99905.94;;;20.23;60.13
36950;BME280;22861;55.824;37.660;2022-07-23T02:15:31;99906.44;;;20.41;59.29
36950;BME280;22861;55.824;37.660;2022-07-23T02:17:57;99900.56;;;20.62;58.87
36950;BME280;22861;55.824;37.660;2022-07-23T02:20:23;99908.66;;;20.96;58.05
36950;BME280;22861;55.824;37.660;2022-07-23T02:22:48;99901.28;;;21.24;57.17
36950;BME280;22861;55.824;37.660;2022-07-23T02:25:14;99904.41;;;21.53;56.39
36950;BME280;22861;55.824;37.660;2022-07-23T02:27:40;99901.63;;;21.66;55.86
36950;BME280;22861;55.824;37.660;2022-07-23T02:30:06;99904.03;;;21.80;55.35
36950;BME280;22861;55.824;37.660;2022-07-23T02:32:32;99899.69;;;21.91;55.14
36950;BME280;22861;55.824;37.660;2022-07-23T02:34:58;99907.03;;;21.98;54.86
36950;BME280;22861;55.824;37.660;2022-07-23T02:37:23;99907.53;;;22.26;54.13
36950;BME280;22861;55.824;37.660;2022-07-23T02:39:49;99903.78;;;22.40;53.55
36950;BME280;22861;55.824;37.660;2022-07-23T02:42:16;99905.69;;;22.82;53.25
36950;BME280;22861;55.824;37.660;2022-07-23T02:44:42;99902.38;;;23.01;52.09
36950;BME280;22861;55.824;37.660;2022-07-23T02:47:07;99904.72;;;23.15;51.54
36950;BME280;22861;55.824;37.660;2022-07-23T02:49:33;99903.03;;;23.35;51.05
36950;BME280;22861;55.824;37.660;2022-07-23T02:51:58;99897.06;;;23.43;50.81
36950;BME280;22861;55.824;37.660;2022-07-23T02:54:24;99899.72;;;23.64;49.94
36950;BME280;22861;55.824;37.660;2022-07-23T02:56:49;99900.91;;;23.81;49.61
36950;BME280;22861;55.824;37.660;2022-07-23T02:59:17;99902.84;;;24.00;49.52
36950;BME280;22861;55.824;37.660;2022-07-23T03:01:43;99909.66;;;23.93;49.43
36950;BME280;22861;55.824;37.660;2022-07-23T03:04:09;99912.88;;;23.96;49.41
36950;BME280;22861;55.824;37.660;2022-07-23T03:06:35;99903.94;;;24.48;48.10
36950;BME280;22861;55.824;37.660;2022-07-23T03:09:01;99905.97;;;24.85;47.27
36950;BME280;22861;55.824;37.660;2022-07-23T03:11:27;99908.22;;;24.90;47.27
36950;BME280;22861;55.824;37.660;2022-07-23T03:13:53;99906.25;;;24.62;47.75
36950;BME280;22861;55.824;37.660;2022-07-23T03:16:18;99911.09;;;24.57;48.32
36950;BME280;22861;55.824;37.660;2022-07-23T03:18:44;99904.41;;;24.63;47.76
36950;BME280;22861;55.824;37.660;2022-07-23T03:21:09;99907.06;;;24.63;47.71
36950;BME280;22861;55.824;37.660;2022-07-23T03:23:35;99909.72;;;24.63;47.88
36950;BME280;22861;55.824;37.660;2022-07-23T03:26:00;99917.84;;;24.71;47.71
36950;BME280;22861;55.824;37.660;2022-07-23T03:28:26;99912.25;;;24.64;47.33
36950;BME280;22861;55.824;37.660;2022-07-23T03:30:52;99915.06;;;24.63;47.28
36950;BME280;22861;55.824;37.660;2022-07-23T03:33:18;99919.06;;;24.57;47.39
36950;BME280;22861;55.824;37.660;2022-07-23T03:35:45;99918.25;;;24.47;47.72
36950;BME280;22861;55.824;37.660;2022-07-23T03:38:11;99919.84;;;24.59;47.85
36950;BME280;22861;55.824;37.660;2022-07-23T03:40:37;99920.09;;;24.66;47.57
36950;BME280;22861;55.824;37.660;2022-07-23T03:43:02;99921.50;;;24.60;47.33
36950;BME280;22861;55.824;37.660;2022-07-23T03:45:28;99918.41;;;24.65;47.27
36950;BME280;22861;55.824;37.660;2022-07-23T03:47:54;99916.88;;;24.72;47.95
36950;BME280;22861;55.824;37.660;2022-07-23T03:50:20;99916.34;;;24.98;47.28
36950;BME280;22861;55.824;37.660;2022-07-23T03:52:46;99915.22;;;24.91;47.80
36950;BME280;22861;55.824;37.660;2022-07-23T03:55:12;99920.13;;;24.85;46.71
36950;BME280;22861;55.824;37.660;2022-07-23T03:57:37;99915.34;;;24.89;47.46
36950;BME280;22861;55.824;37.660;2022-07-23T04:00:04;99916.47;;;24.96;46.97
36950;BME280;22861;55.824;37.660;2022-07-23T04:02:31;99910.31;;;24.86;47.14
36950;BME280;22861;55.824;37.660;2022-07-23T04:04:56;99911.44;;;24.93;47.42
36950;BME280;22861;55.824;37.660;2022-07-23T04:07:22;99915.47;;;25.07;46.73
36950;BME280;22861;55.824;37.660;2022-07-23T04:09:48;99919.09;;;25.26;46.41
36950;BME280;22861;55.824;37.660;2022-07-23T04:12:14;99915.91;;;25.42;46.01
36950;BME280;22861;55.824;37.660;2022-07-23T04:14:40;99916.25;;;25.56;45.55
36950;BME280;22861;55.824;37.660;2022-07-23T04:17:05;99914.28;;;25.68;45.47
36950;BME280;22861;55.824;37.660;2022-07-23T04:19:31;99915.59;;;25.92;44.54
36950;BME280;22861;55.824;37.660;2022-07-23T04:21:57;99916.47;;;26.20;44.09
36950;BME280;22861;55.824;37.660;2022-07-23T04:24:23;99912.75;;;26.31;43.25
36950;BME280;22861;55.824;37.660;2022-07-23T04:26:48;99914.44;;;26.32;42.93
36950;BME280;22861;55.824;37.660;2022-07-23T04:29:14;99918.59;;;26.62;43.23
36950;BME280;22861;55.824;37.660;2022-07-23T04:31:39;99904.44;;;26.80;42.42
36950;BME280;22861;55.824;37.660;2022-07-23T04:34:04;99916.03;;;26.89;42.08
36950;BME280;22861;55.824;37.660;2022-07-23T04:36:30;99918.66;;;27.25;41.71
36950;BME280;22861;55.824;37.660;2022-07-23T04:38:56;99931.41;;;27.31;40.85
36950;BME280;22861;55.824;37.660;2022-07-23T04:41:21;99924.44;;;27.56;40.88
36950;BME280;22861;55.824;37.660;2022-07-23T04:43:47;99925.31;;;27.65;39.78
36950;BME280;22861;55.824;37.660;2022-07-23T04:46:12;99925.69;;;27.70;40.23
36950;BME280;22861;55.824;37.660;2022-07-23T04:48:38;99920.09;;;27.63;39.85
36950;BME280;22861;55.824;37.660;2022-07-23T04:51:04;99916.06;;;27.85;40.28
36950;BME280;22861;55.824;37.660;2022-07-23T04:53:30;99915.00;;;28.04;40.42
36950;BME280;22861;55.824;37.660;2022-07-23T04:55:56;99907.09;;;28.37;38.81
36950;BME280;22861;55.824;37.660;2022-07-23T04:58:22;99913.41;;;28.28;38.39
36950;BME280;22861;55.824;37.660;2022-07-23T05:00:48;99901.84;;;28.19;38.89
36950;BME280;22861;55.824;37.660;2022-07-23T05:03:13;99907.25;;;28.44;39.27
36950;BME280;22861;55.824;37.660;2022-07-23T05:05:39;99898.91;;;28.55;38.86
36950;BME280;22861;55.824;37.660;2022-07-23T05:08:04;99894.28;;;28.82;38.55
36950;BME280;22861;55.824;37.660;2022-07-23T05:10:30;99893.78;;;28.95;37.57
36950;BME280;22861;55.824;37.660;2022-07-23T05:12:56;99893.78;;;29.03;37.55
36950;BME280;22861;55.824;37.660;2022-07-23T05:15:21;99883.56;;;29.07;37.80
36950;BME280;22861;55.824;37.660;2022-07-23T05:17:47;99885.06;;;28.93;37.74
36950;BME280;22861;55.824;37.660;2022-07-23T05:20:12;99887.41;;;29.04;38.10
36950;BME280;22861;55.824;37.660;2022-07-23T05:22:39;99889.25;;;29.12;37.59
36950;BME280;22861;55.824;37.660;2022-07-23T05:25:05;99896.81;;;29.08;37.46
36950;BME280;22861;55.824;37.660;2022-07-23T05:27:30;99902.34;;;29.07;37.49
36950;BME280;22861;55.824;37.660;2022-07-23T05:29:56;99904.66;;;29.02;36.95
36950;BME280;22861;55.824;37.660;2022-07-23T05:32:22;99894.13;;;29.00;37.45
36950;BME280;22861;55.824;37.660;2022-07-23T05:34:47;99900.66;;;28.98;38.10
36950;BME280;22861;55.824;37.660;2022-07-23T05:37:13;99896.13;;;28.90;38.06
36950;BME280;22861;55.824;37.660;2022-07-23T05:39:38;99901.50;;;28.82;38.07
36950;BME280;22861;55.824;37.660;2022-07-23T05:42:04;99892.94;;;28.70;38.93
36950;BME280;22861;55.824;37.660;2022-07-23T05:44:29;99898.22;;;28.45;38.37
36950;BME280;22861;55.824;37.660;2022-07-23T05:46:55;99892.34;;;28.33;38.76
36950;BME280;22861;55.824;37.660;2022-07-23T05:49:20;99886.66;;;28.28;39.07
36950;BME280;22861;55.824;37.660;2022-07-23T05:51:46;99888.34;;;28.37;39.13
36950;BME280;22861;55.824;37.660;2022-07-23T05:54:11;99892.34;;;28.33;38.06
36950;BME280;22861;55.824;37.660;2022-07-23T05:56:37;99889.53;;;28.43;38.25
36950;BME280;22861;55.824;37.660;2022-07-23T05:59:03;99886.03;;;28.51;39.18
36950;BME280;22861;55.824;37.660;2022-07-23T06:01:28;99887.03;;;28.50;38.97
36950;BME280;22861;55.824;37.660;2022-07-23T06:03:53;99890.34;;;28.35;38.73
36950;BME280;22861;55.824;37.660;2022-07-23T06:06:19;99882.00;;;28.38;39.54
36950;BME280;22861;55.824;37.660;2022-07-23T06:08:45;99883.09;;;28.19;38.41
36950;BME280;22861;55.824;37.660;2022-07-23T06:11:10;99889.00;;;28.39;37.75
36950;BME280;22861;55.824;37.660;2022-07-23T06:13:36;99883.38;;;28.59;37.11
36950;BME280;22861;55.824;37.660;2022-07-23T06:16:02;99883.84;;;28.46;36.97
36950;BME280;22861;55.824;37.660;2022-07-23T06:18:27;99883.84;;;28.54;37.83
36950;BME280;22861;55.824;37.660;2022-07-23T06:20:53;99881.72;;;28.66;37.74
36950;BME280;22861;55.824;37.660;2022-07-23T06:23:19;99879.38;;;28.63;37.30
36950;BME280;22861;55.824;37.660;2022-07-23T06:25:45;99875.69;;;28.72;37.96
36950;BME280;22861;55.824;37.660;2022-07-23T06:28:10;99883.38;;;28.59;36.52
36950;BME280;22861;55.824;37.660;2022-07-23T06:30:36;99877.50;;;28.55;37.00
36950;BME280;22861;55.824;37.660;2022-07-23T06:33:01;99878.13;;;28.41;37.78
36950;BME280;22861;55.824;37.660;2022-07-23T06:35:27;99884.84;;;28.53;37.94
36950;BME280;22861;55.824;37.660;2022-07-23T06:37:53;99869.16;;;28.67;37.79
36950;BME280;22861;55.824;37.660;2022-07-23T06:40:18;99874.53;;;28.75;37.50
36950;BME280;22861;55.824;37.660;2022-07-23T06:42:44;99873.13;;;28.54;37.10
36950;BME280;22861;55.824;37.660;2022-07-23T06:45:09;99869.44;;;28.47;38.15
36950;BME280;22861;55.824;37.660;2022-07-23T06:47:35;99868.22;;;28.33;38.23
36950;BME280;22861;55.824;37.660;2022-07-23T06:50:00;99874.00;;;28.04;38.42
36950;BME280;22861;55.824;37.660;2022-07-23T06:52:26;99875.00;;;28.03;38.64
36950;BME280;22861;55.824;37.660;2022-07-23T06:54:52;99870.84;;;28.09;38.66
36950;BME280;22861;55.824;37.660;2022-07-23T06:57:18;99872.34;;;28.03;38.92
36950;BME280;22861;55.824;37.660;2022-07-23T06:59:43;99873.06;;;28.21;38.45
36950;BME280;22861;55.824;37.660;2022-07-23T07:02:09;99869.91;;;28.26;38.63
36950;BME280;22861;55.824;37.660;2022-07-23T07:04:34;99871.78;;;28.42;38.51
36950;BME280;22861;55.824;37.660;2022-07-23T07:07:00;99866.56;;;28.32;38.38
36950;BME280;22861;55.824;37.660;2022-07-23T07:09:25;99872.78;;;28.41;37.62
36950;BME280;22861;55.824;37.660;2022-07-23T07:11:51;99873.25;;;28.36;38.37
36950;BME280;22861;55.824;37.660;2022-07-23T07:14:17;99869.41;;;28.31;38.30
36950;BME280;22861;55.824;37.660;2022-07-23T07:16:43;99875.94;;;28.36;37.52
36950;BME280;22861;55.824;37.660;2022-07-23T07:19:08;99866.88;;;28.21;38.16
36950;BME280;22861;55.824;37.660;2022-07-23T07:21:34;99874.19;;;28.02;38.62
36950;BME280;22861;55.824;37.660;2022-07-23T07:23:59;99866.16;;;28.02;38.28
36950;BME280;22861;55.824;37.660;2022-07-23T07:26:25;99868.88;;;28.19;37.94
36950;BME280;22861;55.824;37.660;2022-07-23T07:28:51;99864.72;;;28.33;38.43
36950;BME280;22861;55.824;37.660;2022-07-23T07:31:16;99863.06;;;28.40;37.21
36950;BME280;22861;55.824;37.660;2022-07-23T07:33:42;99858.72;;;28.47;37.72
36950;BME280;22861;55.824;37.660;2022-07-23T07:36:08;99863.06;;;28.56;37.47
36950;BME280;22861;55.824;37.660;2022-07-23T07:38:33;99862.72;;;28.35;37.45
36950;BME280;22861;55.824;37.660;2022-07-23T07:40:59;99868.59;;;28.47;38.17
36950;BME280;22861;55.824;37.660;2022-07-23T07:43:24;99864.72;;;28.41;37.58
36950;BME280;22861;55.824;37.660;2022-07-23T07:45:50;99863.22;;;28.30;36.88
36950;BME280;22861;55.824;37.660;2022-07-23T07:48:16;99864.56;;;28.26;36.26
36950;BME280;22861;55.824;37.660;2022-07-23T07:50:41;99870.28;;;28.48;37.56
36950;BME280;22861;55.824;37.660;2022-07-23T07:53:07;99864.13;;;28.64;36.32
36950;BME280;22861;55.824;37.660;2022-07-23T07:55:34;99868.16;;;28.84;36.83
36950;BME280;22861;55.824;37.660;2022-07-23T07:58:00;99865.81;;;28.73;35.41
36950;BME280;22861;55.824;37.660;2022-07-23T08:00:25;99873.19;;;28.87;35.65
36950;BME280;22861;55.824;37.660;2022-07-23T08:02:52;99870.66;;;29.10;35.74
36950;BME280;22861;55.824;37.660;2022-07-23T08:05:20;99874.34;;;29.09;35.20
36950;BME280;22861;55.824;37.660;2022-07-23T08:07:46;99864.78;;;29.15;34.94
36950;BME280;22861;55.824;37.660;2022-07-23T08:10:11;99862.13;;;29.32;35.75
36950;BME280;22861;55.824;37.660;2022-07-23T08:12:45;99860.38;;;29.55;34.79
36950;BME280;22861;55.824;37.660;2022-07-23T08:15:19;99856.28;;;29.76;34.37
36950;BME280;22861;55.824;37.660;2022-07-23T08:17:45;99862.53;;;29.60;34.70
36950;BME280;22861;55.824;37.660;2022-07-23T08:20:13;99866.69;;;29.71;35.07
36950;BME280;22861;55.824;37.660;2022-07-23T08:25:16;99864.69;;;29.64;35.32
36950;BME280;22861;55.824;37.660;2022-07-23T08:27:42;99862.59;;;29.43;34.58
36950;BME280;22861;55.824;37.660;2022-07-23T08:30:08;99850.06;;;29.27;34.83
36950;BME280;22861;55.824;37.660;2022-07-23T08:32:48;99860.66;;;29.77;34.53
36950;BME280;22861;55.824;37.660;2022-07-23T08:35:13;99852.00;;;29.50;34.53
36950;BME280;22861;55.824;37.660;2022-07-23T08:37:39;99845.72;;;29.74;33.89
36950;BME280;22861;55.824;37.660;2022-07-23T08:40:05;99847.16;;;29.93;33.36
36950;BME280;22861;55.824;37.660;2022-07-23T08:42:32;99854.59;;;30.14;33.05
36950;BME280;22861;55.824;37.660;2022-07-23T08:45:02;99850.75;;;30.17;33.07
36950;BME280;22861;55.824;37.660;2022-07-23T08:47:29;99838.09;;;29.94;34.02
36950;BME280;22861;55.824;37.660;2022-07-23T08:49:56;99846.03;;;29.88;34.15
36950;BME280;22861;55.824;37.660;2022-07-23T08:52:22;99850.03;;;29.92;34.04
36950;BME280;22861;55.824;37.660;2022-07-23T08:54:48;99846.75;;;29.65;33.93
36950;BME280;22861;55.824;37.660;2022-07-23T08:57:14;99844.91;;;29.74;34.00
36950;BME280;22861;55.824;37.660;2022-07-23T08:59:40;99848.56;;;29.73;33.96
36950;BME280;22861;55.824;37.660;2022-07-23T09:02:06;99840.75;;;29.55;34.32
36950;BME280;22861;55.824;37.660;2022-07-23T09:04:32;99843.91;;;29.67;33.47
36950;BME280;22861;55.824;37.660;2022-07-23T09:06:57;99838.34;;;29.85;32.52
36950;BME280;22861;55.824;37.660;2022-07-23T09:09:23;99835.97;;;30.13;32.46
36950;BME280;22861;55.824;37.660;2022-07-23T09:12:09;99837.00;;;31.04;31.54
36950;BME280;22861;55.824;37.660;2022-07-23T09:14:41;99835.38;;;30.95;31.26
36950;BME280;22861;55.824;37.660;2022-07-23T09:17:15;99834.22;;;30.98;31.39
36950;BME280;22861;55.824;37.660;2022-07-23T09:19:43;99834.72;;;30.55;31.63
36950;BME280;22861;55.824;37.660;2022-07-23T09:22:18;99828.50;;;30.78;32.31
36950;BME280;22861;55.824;37.660;2022-07-23T09:25:10;99830.00;;;30.57;31.53
36950;BME280;22861;55.824;37.660;2022-07-23T09:27:51;99831.69;;;30.58;31.90
36950;BME280;22861;55.824;37.660;2022-07-23T09:30:26;99830.94;;;30.18;32.23
36950;BME280;22861;55.824;37.660;2022-07-23T09:38:12;99832.81;;;30.41;31.91
36950;BME280;22861;55.824;37.660;2022-07-23T09:40:38;99833.19;;;30.61;31.80
36950;BME280;22861;55.824;37.660;2022-07-23T09:43:04;99829.78;;;30.67;31.25
36950;BME280;22861;55.824;37.660;2022-07-23T09:45:29;99824.91;;;30.85;31.55
36950;BME280;22861;55.824;37.660;2022-07-23T09:48:14;99819.41;;;31.47;30.55
36950;BME280;22861;55.824;37.660;2022-07-23T09:50:41;99819.78;;;31.14;30.63
36950;BME280;22861;55.824;37.660;2022-07-23T09:53:08;99815.44;;;31.28;30.96
36950;BME280;22861;55.824;37.660;2022-07-23T09:55:35;99819.81;;;31.59;30.57
36950;BME280;22861;55.824;37.660;2022-07-23T09:58:05;99819.81;;;31.59;30.41
36950;BME280;22861;55.824;37.660;2022-07-23T10:00:38;99814.44;;;31.59;29.85
36950;BME280;22861;55.824;37.660;2022-07-23T10:03:05;99811.53;;;31.75;30.09
36950;BME280;22861;55.824;37.660;2022-07-23T10:05:32;99813.13;;;31.69;30.10
36950;BME280;22861;55.824;37.660;2022-07-23T10:07:59;99817.75;;;31.31;30.56
36950;BME280;22861;55.824;37.660;2022-07-23T10:10:27;99807.63;;;31.03;31.00
36950;BME280;22861;55.824;37.660;2022-07-23T10:12:54;99810.91;;;30.90;31.05
36950;BME280;22861;55.824;37.660;2022-07-23T10:15:43;99809.03;;;31.73;29.72
36950;BME280;22861;55.824;37.660;2022-07-23T10:18:10;99808.88;;;30.92;30.64
36950;BME280;22861;55.824;37.660;2022-07-23T10:20:37;99801.47;;;30.56;31.51
36950;BME280;22861;55.824;37.660;2022-07-23T10:29:01;99792.88;;;30.99;30.47
36950;BME280;22861;55.824;37.660;2022-07-23T10:35:26;99795.22;;;30.79;30.66
36950;BME280;22861;55.824;37.660;2022-07-23T10:37:59;99793.25;;;30.58;31.12
36950;BME280;22861;55.824;37.660;2022-07-23T10:40:26;99787.47;;;30.46;31.66
36950;BME280;22861;55.824;37.660;2022-07-23T10:42:58;99782.97;;;30.61;31.23
36950;BME280;22861;55.824;37.660;2022-07-23T10:47:54;99778.84;;;30.50;31.45
36950;BME280;22861;55.824;37.660;2022-07-23T10:50:29;99776.16;;;30.89;31.35
36950;BME280;22861;55.824;37.660;2022-07-23T10:58:01;99767.16;;;30.96;31.04
36950;BME280;22861;55.824;37.660;2022-07-23T11:00:30;99761.47;;;31.14;30.10
36950;BME280;22861;55.824;37.660;2022-07-23T11:02:59;99764.34;;;31.28;30.20
36950;BME280;22861;55.824;37.660;2022-07-23T11:05:38;99763.13;;;31.30;29.58
36950;BME280;22861;55.824;37.660;2022-07-23T11:16:22;99756.22;;;31.72;30.04
36950;BME280;22861;55.824;37.660;2022-07-23T11:24:12;99748.72;;;31.53;30.66
36950;BME280;22861;55.824;37.660;2022-07-23T11:27:00;99755.09;;;31.52;30.42
36950;BME280;22861;55.824;37.660;2022-07-23T11:36:57;99753.59;;;31.13;30.95
36950;BME280;22861;55.824;37.660;2022-07-23T11:39:26;99756.81;;;31.23;30.86
36950;BME280;22861;55.824;37.660;2022-07-23T11:41:52;99747.16;;;31.14;30.82
36950;BME280;22861;55.824;37.660;2022-07-23T11:44:27;99748.38;;;31.56;30.57
36950;BME280;22861;55.824;37.660;2022-07-23T11:47:08;99753.38;;;31.59;30.14
36950;BME280;22861;55.824;37.660;2022-07-23T11:49:35;99751.59;;;31.21;29.78
36950;BME280;22861;55.824;37.660;2022-07-23T11:54:32;99742.91;;;31.04;29.58
36950;BME280;22861;55.824;37.660;2022-07-23T11:56:59;99735.03;;;31.18;29.32
36950;BME280;22861;55.824;37.660;2022-07-23T11:59:33;99734.81;;;31.49;28.79
36950;BME280;22861;55.824;37.660;2022-07-23T12:02:03;99733.44;;;31.38;29.08
36950;BME280;22861;55.824;37.660;2022-07-23T12:04:43;99726.75;;;31.64;29.12
36950;BME280;22861;55.824;37.660;2022-07-23T12:09:53;99721.56;;;31.18;29.97
36950;BME280;22861;55.824;37.660;2022-07-23T12:12:20;99732.25;;;31.26;30.24
36950;BME280;22861;55.824;37.660;2022-07-23T12:14:52;99727.13;;;31.46;30.02
36950;BME280;22861;55.824;37.660;2022-07-23T12:17:20;99717.00;;;31.33;29.53
36950;BME280;22861;55.824;37.660;2022-07-23T12:19:47;99723.16;;;31.12;29.42
36950;BME280;22861;55.824;37.660;2022-07-23T12:22:13;99719.06;;;31.16;29.86
36950;BME280;22861;55.824;37.660;2022-07-23T12:25:03;99717.25;;;31.68;28.77
36950;BME280;22861;55.824;37.660;2022-07-23T12:27:30;99709.44;;;31.22;29.67
36950;BME280;22861;55.824;37.660;2022-07-23T12:29:56;99717.13;;;31.10;29.19
36950;BME280;22861;55.824;37.660;2022-07-23T12:32:27;99709.16;;;31.53;28.90
36950;BME280;22861;55.824;37.660;2022-07-23T12:35:07;99701.25;;;31.82;28.33
36950;BME280;22861;55.824;37.660;2022-07-23T12:37:41;99703.53;;;31.85;28.41
36950;BME280;22861;55.824;37.660;2022-07-23T12:43:19;99706.47;;;31.68;28.26
36950;BME280;22861;55.824;37.660;2022-07-23T12:45:50;99698.25;;;31.55;28.94
36950;BME280;22861;55.824;37.660;2022-07-23T12:48:34;99705.88;;;31.36;28.32
36950;BME280;22861;55.824;37.660;2022-07-23T12:51:29;99692.81;;;31.70;29.05
36950;BME280;22861;55.824;37.660;2022-07-23T12:54:06;99697.00;;;31.06;29.65
36950;BME280;22861;55.824;37.660;2022-07-23T12:56:38;99686.88;;;30.93;29.54
36950;BME280;22861;55.824;37.660;2022-07-23T12:59:08;99693.84;;;30.87;29.48
36950;BME280;22861;55.824;37.660;2022-07-23T13:01:41;99687.16;;;30.83;29.08
36950;BME280;22861;55.824;37.660;2022-07-23T13:06:40;99680.50;;;31.09;30.20
36950;BME280;22861;55.824;37.660;2022-07-23T13:09:08;99693.00;;;30.87;30.27
36950;BME280;22861;55.824;37.660;2022-07-23T13:11:35;99692.16;;;30.72;30.99
36950;BME280;22861;55.824;37.660;2022-07-23T13:14:00;99692.06;;;30.65;30.76
36950;BME280;22861;55.824;37.660;2022-07-23T13:16:28;99691.41;;;30.63;30.84
36950;BME280;22861;55.824;37.660;2022-07-23T13:18:54;99681.66;;;30.47;30.94
36950;BME280;22861;55.824;37.660;2022-07-23T13:21:22;99689.72;;;30.62;30.97
36950;BME280;22861;55.824;37.660;2022-07-23T13:23:47;99682.06;;;30.74;31.28
36950;BME280;22861;55.824;37.660;2022-07-23T13:26:13;99691.13;;;30.73;30.74
36950;BME280;22861;55.824;37.660;2022-07-23T13:28:39;99690.31;;;30.72;30.24
36950;BME280;22861;55.824;37.660;2022-07-23T13:31:05;99689.09;;;30.60;29.92
36950;BME280;22861;55.824;37.660;2022-07-23T13:33:30;99688.44;;;30.43;30.39
36950;BME280;22861;55.824;37.660;2022-07-23T13:35:56;99683.41;;;30.40;30.70
36950;BME280;22861;55.824;37.660;2022-07-23T13:38:22;99681.84;;;30.45;30.17
36950;BME280;22861;55.824;37.660;2022-07-23T13:40:49;99679.50;;;30.42;30.16
36950;BME280;22861;55.824;37.660;2022-07-23T13:43:18;99668.88;;;30.49;30.49
36950;BME280;22861;55.824;37.660;2022-07-23T13:45:44;99674.44;;;30.47;31.22
36950;BME280;22861;55.824;37.660;2022-07-23T13:48:11;99666.78;;;30.59;30.66